Time;durP1;ratioP1;P1;durP2;ratioP2;P2;SDS_P1;SDS_P2;PMS_P1;PMS_P2;Temp;Humidity;BMP_temperature;BMP_pressure;BME280_temperature;BME280_humidity;BME280_pressure;Samples;Min_cycle;Max_cycle;Signal;HPM_P1;HPM_P2
2023/09/30 00:01:44;;;;;;;10.63;3.08;;;;;;;;;;5076627;28;20024;-67
2023/09/30 00:04:09;;;;;;;15.98;4.32;;;;;;;;;;5067013;28;20043;-67
2023/09/30 00:06:34;;;;;;;15.68;3.38;;;;;;;;;;5079765;28;20494;-67
2023/09/30 00:09:00;;;;;;;16.77;4.30;;;;;;;;;;5071755;28;20020;-67
2023/09/30 00:11:25;;;;;;;13.80;4.47;;;;;;;;;;5061136;28;20028;-67
2023/09/30 00:13:50;;;;;;;26.80;3.97;;;;;;;;;;5052608;28;20025;-67
2023/09/30 00:16:17;;;;;;;8.20;2.90;;;;;;;;;;5052679;28;20028;-67
2023/09/30 00:18:43;;;;;;;14.32;3.42;;;;;;;;;;5052208;28;20032;-67
2023/09/30 00:21:08;;;;;;;11.52;3.75;;;;;;;;;;5052431;28;20020;-67
2023/09/30 00:23:33;;;;;;;11.80;4.43;;;;;;;;;;5060729;28;20030;-67
2023/09/30 00:26:00;;;;;;;15.90;3.58;;;;;;;;;;5094657;28;20020;-67
2023/09/30 00:28:25;;;;;;;9.88;3.17;;;;;;;;;;5096459;28;20420;-67
2023/09/30 00:30:50;;;;;;;13.23;3.13;;;;;;;;;;5067227;28;20032;-67
2023/09/30 00:33:15;;;;;;;18.98;3.05;;;;;;;;;;5063206;28;20017;-67
2023/09/30 00:35:41;;;;;;;16.05;2.80;;;;;;;;;;5073354;28;20393;-67
2023/09/30 00:38:06;;;;;;;15.15;3.13;;;;;;;;;;5075044;28;20029;-67
2023/09/30 00:40:31;;;;;;;16.55;3.50;;;;;;;;;;5075939;28;20024;-67
2023/09/30 00:42:57;;;;;;;15.60;4.22;;;;;;;;;;5076414;28;20448;-67
2023/09/30 00:45:23;;;;;;;14.90;2.85;;;;;;;;;;5075292;28;20494;-67
2023/09/30 00:47:48;;;;;;;13.48;3.13;;;;;;;;;;5074922;28;20163;-67
2023/09/30 00:50:13;;;;;;;7.20;2.90;;;;;;;;;;5076046;28;20020;-68
2023/09/30 00:52:39;;;;;;;15.60;4.20;;;;;;;;;;5086050;28;20047;-67
2023/09/30 00:55:05;;;;;;;9.30;3.20;;;;;;;;;;5094749;28;20099;-67
2023/09/30 00:57:31;;;;;;;15.82;5.10;;;;;;;;;;5089982;28;20044;-67
2023/09/30 00:59:57;;;;;;;13.13;2.97;;;;;;;;;;5079464;28;20027;-67
2023/09/30 01:02:38;;;;;;;17.63;3.45;;;;;;;;;;5074744;28;20036;-67
2023/09/30 01:05:03;;;;;;;11.27;3.53;;;;;;;;;;5063439;28;20021;-67
2023/09/30 01:07:28;;;;;;;14.10;3.10;;;;;;;;;;5055861;28;20032;-67
2023/09/30 01:09:54;;;;;;;6.55;2.63;;;;;;;;;;5055407;28;20546;-67
2023/09/30 01:12:19;;;;;;;19.98;3.63;;;;;;;;;;5074513;28;20028;-67
2023/09/30 01:14:44;;;;;;;13.50;3.20;;;;;;;;;;5075570;28;20028;-67
2023/09/30 01:17:13;;;;;;;12.05;2.85;;;;;;;;;;5075689;28;20054;-67
2023/09/30 01:19:38;;;;;;;11.57;3.08;;;;;;;;;;5074278;28;20508;-68
2023/09/30 01:22:05;;;;;;;11.07;3.45;;;;;;;;;;5075626;28;20028;-67
2023/09/30 01:24:31;;;;;;;15.57;2.53;;;;;;;;;;5074434;28;20150;-67
2023/09/30 01:26:56;;;;;;;13.30;3.00;;;;;;;;;;5060958;28;20107;-67
2023/09/30 01:29:22;;;;;;;11.55;2.83;;;;;;;;;;5060766;28;20099;-67
2023/09/30 01:31:48;;;;;;;16.02;2.30;;;;;;;;;;5055287;28;20390;-67
2023/09/30 01:34:14;;;;;;;13.93;3.35;;;;;;;;;;5062461;28;20016;-67
2023/09/30 01:36:39;;;;;;;11.85;3.47;;;;;;;;;;5071595;28;20551;-66
2023/09/30 01:39:07;;;;;;;16.70;4.20;;;;;;;;;;5061848;28;20025;-67
2023/09/30 01:41:32;;;;;;;12.30;2.85;;;;;;;;;;5055333;28;20021;-67
2023/09/30 01:43:57;;;;;;;11.80;2.70;;;;;;;;;;5065665;28;20017;-67
2023/09/30 01:46:22;;;;;;;10.20;2.72;;;;;;;;;;5075091;28;20039;-67
2023/09/30 01:48:48;;;;;;;12.05;3.78;;;;;;;;;;5074733;28;20042;-67
2023/09/30 01:51:13;;;;;;;11.65;2.60;;;;;;;;;;5060268;28;20025;-67
2023/09/30 01:53:39;;;;;;;17.63;3.40;;;;;;;;;;5047091;28;20025;-67
2023/09/30 01:56:06;;;;;;;12.65;3.55;;;;;;;;;;5066463;28;20115;-67
2023/09/30 01:58:32;;;;;;;11.27;4.25;;;;;;;;;;5074847;28;20031;-67
2023/09/30 02:01:03;;;;;;;11.52;4.00;;;;;;;;;;5074658;28;20036;-67
2023/09/30 02:03:29;;;;;;;20.63;3.03;;;;;;;;;;5073520;28;20050;-67
2023/09/30 02:05:55;;;;;;;19.05;3.92;;;;;;;;;;5066755;28;20020;-67
2023/09/30 02:08:20;;;;;;;10.80;3.85;;;;;;;;;;5059851;28;20133;-68
2023/09/30 02:10:46;;;;;;;13.05;2.75;;;;;;;;;;5056867;28;20025;-67
2023/09/30 02:13:11;;;;;;;13.10;3.20;;;;;;;;;;5055608;28;20028;-67
2023/09/30 02:15:40;;;;;;;11.07;2.70;;;;;;;;;;5068267;28;20051;-67
2023/09/30 02:18:06;;;;;;;12.32;3.22;;;;;;;;;;5073175;28;20024;-67
2023/09/30 02:20:31;;;;;;;8.55;2.47;;;;;;;;;;5062582;28;20021;-67
2023/09/30 02:22:58;;;;;;;17.33;3.72;;;;;;;;;;5054550;28;20024;-67
2023/09/30 02:25:24;;;;;;;10.80;3.20;;;;;;;;;;5062014;28;20032;-67
2023/09/30 02:27:50;;;;;;;16.70;3.95;;;;;;;;;;5053445;28;20021;-67
2023/09/30 02:30:16;;;;;;;10.40;3.17;;;;;;;;;;5068003;28;20433;-67
2023/09/30 02:32:42;;;;;;;19.98;3.22;;;;;;;;;;5072658;28;20066;-67
2023/09/30 02:35:08;;;;;;;14.38;2.70;;;;;;;;;;5072921;28;20496;-67
2023/09/30 02:37:37;;;;;;;17.30;3.55;;;;;;;;;;5073011;28;20025;-67
2023/09/30 02:40:09;;;;;;;21.55;3.63;;;;;;;;;;5072098;28;20035;-67
2023/09/30 02:42:39;;;;;;;16.27;3.25;;;;;;;;;;5072818;28;20508;-67
2023/09/30 02:45:05;;;;;;;13.63;4.53;;;;;;;;;;5073820;28;20036;-67
2023/09/30 02:47:31;;;;;;;11.85;2.78;;;;;;;;;;5067906;28;20098;-68
2023/09/30 02:49:57;;;;;;;12.98;2.92;;;;;;;;;;5069218;28;20089;-67
2023/09/30 02:52:23;;;;;;;10.13;3.15;;;;;;;;;;5071613;28;20526;-68
2023/09/30 02:54:49;;;;;;;9.77;3.28;;;;;;;;;;5058634;28;20134;-67
2023/09/30 02:57:15;;;;;;;6.63;2.63;;;;;;;;;;5053444;28;20017;-67
2023/09/30 02:59:40;;;;;;;11.55;3.65;;;;;;;;;;5057488;28;20025;-67
2023/09/30 03:02:06;;;;;;;12.65;3.28;;;;;;;;;;5053812;28;20024;-68
2023/09/30 03:04:32;;;;;;;11.27;2.42;;;;;;;;;;5053032;28;20556;-68
2023/09/30 03:06:58;;;;;;;9.00;3.45;;;;;;;;;;5072257;28;20086;-67
2023/09/30 03:09:23;;;;;;;14.57;3.17;;;;;;;;;;5073315;28;20103;-68
2023/09/30 03:11:49;;;;;;;15.32;3.20;;;;;;;;;;5073429;28;20478;-68
2023/09/30 03:14:15;;;;;;;10.50;2.88;;;;;;;;;;5073315;28;20024;-67
2023/09/30 03:16:41;;;;;;;15.10;3.22;;;;;;;;;;5073318;28;20036;-68
2023/09/30 03:19:08;;;;;;;16.45;3.35;;;;;;;;;;5072916;28;20031;-68
2023/09/30 03:21:35;;;;;;;10.85;2.72;;;;;;;;;;5073006;28;20561;-67
2023/09/30 03:24:02;;;;;;;18.60;3.03;;;;;;;;;;5072355;28;20452;-68
2023/09/30 03:26:29;;;;;;;11.88;3.15;;;;;;;;;;5073160;28;20028;-67
2023/09/30 03:28:55;;;;;;;6.28;3.65;;;;;;;;;;5070650;28;20025;-67
2023/09/30 03:31:20;;;;;;;15.45;4.22;;;;;;;;;;5052612;28;20683;-67
2023/09/30 03:33:47;;;;;;;14.50;3.15;;;;;;;;;;5051801;28;20025;-67
2023/09/30 03:36:13;;;;;;;13.07;2.72;;;;;;;;;;5059775;28;20035;-67
2023/09/30 03:38:39;;;;;;;18.33;3.55;;;;;;;;;;5052720;28;20028;-67
2023/09/30 03:41:07;;;;;;;8.18;3.17;;;;;;;;;;5056769;28;20028;-67
2023/09/30 03:43:34;;;;;;;10.13;3.47;;;;;;;;;;5072817;28;20017;-67
2023/09/30 03:46:00;;;;;;;7.10;2.67;;;;;;;;;;5071738;28;20146;-67
2023/09/30 03:48:26;;;;;;;9.65;2.75;;;;;;;;;;5058066;28;20074;-68
2023/09/30 03:50:52;;;;;;;11.95;3.00;;;;;;;;;;5053409;28;20021;-68
2023/09/30 03:53:18;;;;;;;11.68;3.50;;;;;;;;;;5054159;28;20090;-68
2023/09/30 03:55:43;;;;;;;12.57;2.53;;;;;;;;;;5070668;28;20429;-67
2023/09/30 03:58:08;;;;;;;6.88;2.65;;;;;;;;;;5072273;28;20066;-67
2023/09/30 04:00:35;;;;;;;13.38;2.58;;;;;;;;;;5071183;28;20024;-67
2023/09/30 04:03:00;;;;;;;12.65;3.05;;;;;;;;;;5076961;28;20478;-67
2023/09/30 04:05:29;;;;;;;7.78;2.15;;;;;;;;;;5069470;28;20025;-68
2023/09/30 04:07:55;;;;;;;10.05;2.25;;;;;;;;;;5056990;28;20104;-67
2023/09/30 04:10:22;;;;;;;8.93;2.45;;;;;;;;;;5055975;28;20021;-67
2023/09/30 04:12:48;;;;;;;14.50;3.40;;;;;;;;;;5075220;28;20021;-68
2023/09/30 04:15:13;;;;;;;12.07;2.83;;;;;;;;;;5075750;28;20368;-67
2023/09/30 04:17:39;;;;;;;5.70;1.90;;;;;;;;;;5076183;28;20376;-68
2023/09/30 04:20:10;;;;;;;7.28;2.40;;;;;;;;;;5076500;28;20070;-67
2023/09/30 04:22:35;;;;;;;6.10;2.75;;;;;;;;;;5076659;28;20103;-68
2023/09/30 04:25:01;;;;;;;7.75;2.97;;;;;;;;;;5076081;28;20059;-68
2023/09/30 04:27:27;;;;;;;10.07;3.10;;;;;;;;;;5076558;28;20078;-67
2023/09/30 04:29:53;;;;;;;14.10;3.60;;;;;;;;;;5076511;28;20017;-67
2023/09/30 04:32:19;;;;;;;9.88;2.15;;;;;;;;;;5075204;28;20397;-67
2023/09/30 04:34:45;;;;;;;12.60;2.70;;;;;;;;;;5076396;28;20016;-67
2023/09/30 04:37:11;;;;;;;11.68;3.17;;;;;;;;;;5073090;28;20032;-69
2023/09/30 04:39:36;;;;;;;12.40;2.80;;;;;;;;;;5058149;28;20056;-69
2023/09/30 04:42:03;;;;;;;9.55;3.35;;;;;;;;;;5056550;28;20390;-69
2023/09/30 04:44:30;;;;;;;8.75;2.53;;;;;;;;;;5070706;28;20063;-69
2023/09/30 04:46:56;;;;;;;14.70;3.55;;;;;;;;;;5075601;28;20036;-69
2023/09/30 04:49:23;;;;;;;10.63;2.47;;;;;;;;;;5074624;28;20393;-69
2023/09/30 04:51:49;;;;;;;10.85;2.42;;;;;;;;;;5076280;28;20029;-70
2023/09/30 04:54:14;;;;;;;12.90;2.88;;;;;;;;;;5076274;28;20371;-69
2023/09/30 04:56:39;;;;;;;8.00;2.42;;;;;;;;;;5076404;28;20024;-70
2023/09/30 04:59:05;;;;;;;9.20;2.95;;;;;;;;;;5067491;28;20029;-69
2023/09/30 05:01:30;;;;;;;15.02;2.90;;;;;;;;;;5061867;28;20039;-70
2023/09/30 05:03:55;;;;;;;9.10;2.80;;;;;;;;;;5054841;28;20021;-69
2023/09/30 05:06:21;;;;;;;11.05;3.92;;;;;;;;;;5070044;28;20466;-69
2023/09/30 05:08:47;;;;;;;22.75;3.45;;;;;;;;;;5074630;28;20025;-69
2023/09/30 05:11:12;;;;;;;5.10;2.08;;;;;;;;;;5068660;28;20032;-69
2023/09/30 05:13:38;;;;;;;11.85;2.60;;;;;;;;;;5055933;28;20029;-69
2023/09/30 05:16:03;;;;;;;14.70;3.30;;;;;;;;;;5055562;28;20017;-69
2023/09/30 05:18:29;;;;;;;12.88;3.00;;;;;;;;;;5073165;28;20556;-69
2023/09/30 05:20:54;;;;;;;15.90;3.08;;;;;;;;;;5055807;28;20025;-69
2023/09/30 05:23:20;;;;;;;14.88;2.30;;;;;;;;;;5064080;28;20395;-69
2023/09/30 05:25:45;;;;;;;11.43;2.95;;;;;;;;;;5074809;28;20020;-69
2023/09/30 05:28:11;;;;;;;10.82;2.40;;;;;;;;;;5075872;28;20024;-69
2023/09/30 05:30:36;;;;;;;14.88;2.88;;;;;;;;;;5076542;28;20448;-69
2023/09/30 05:33:03;;;;;;;7.95;2.30;;;;;;;;;;5074916;28;20028;-70
2023/09/30 05:35:29;;;;;;;11.55;3.00;;;;;;;;;;5069805;28;20040;-70
2023/09/30 05:37:54;;;;;;;11.52;3.05;;;;;;;;;;5053301;28;20029;-69
2023/09/30 05:40:26;;;;;;;9.10;2.95;;;;;;;;;;5036751;28;20036;-69
2023/09/30 05:42:57;;;;;;;15.43;3.65;;;;;;;;;;5074083;28;20051;-69
2023/09/30 05:45:23;;;;;;;15.55;2.17;;;;;;;;;;5075130;28;20426;-69
2023/09/30 05:47:49;;;;;;;12.15;2.65;;;;;;;;;;5074850;28;20059;-69
2023/09/30 05:50:16;;;;;;;12.52;2.83;;;;;;;;;;5056694;28;20021;-69
2023/09/30 05:52:44;;;;;;;18.73;2.78;;;;;;;;;;5072752;28;20035;-69
2023/09/30 05:55:10;;;;;;;10.13;2.88;;;;;;;;;;5074712;28;20032;-69
2023/09/30 05:57:36;;;;;;;10.70;3.08;;;;;;;;;;5073296;28;20024;-69
2023/09/30 06:00:06;;;;;;;8.25;2.85;;;;;;;;;;5074059;28;20503;-69
2023/09/30 06:02:31;;;;;;;10.90;2.92;;;;;;;;;;5073895;28;20105;-69
2023/09/30 06:04:57;;;;;;;10.30;2.67;;;;;;;;;;5049333;28;20055;-69
2023/09/30 06:07:22;;;;;;;14.27;3.10;;;;;;;;;;5054268;28;20445;-69
2023/09/30 06:09:49;;;;;;;10.23;2.85;;;;;;;;;;5060751;28;20017;-69
2023/09/30 06:12:14;;;;;;;21.20;5.15;;;;;;;;;;5073012;28;20031;-69
2023/09/30 06:14:40;;;;;;;12.32;3.63;;;;;;;;;;5073151;28;20020;-69
2023/09/30 06:17:06;;;;;;;15.05;2.78;;;;;;;;;;5053278;28;20021;-69
2023/09/30 06:19:31;;;;;;;14.50;2.38;;;;;;;;;;5052780;28;20385;-69
2023/09/30 06:21:57;;;;;;;16.15;3.83;;;;;;;;;;5068532;28;20029;-69
2023/09/30 06:24:22;;;;;;;11.43;2.38;;;;;;;;;;5057254;28;20016;-68
2023/09/30 06:26:48;;;;;;;8.80;2.95;;;;;;;;;;5074297;28;20532;-67
2023/09/30 06:29:14;;;;;;;9.90;2.50;;;;;;;;;;5069670;28;20055;-68
2023/09/30 06:31:39;;;;;;;5.47;2.25;;;;;;;;;;5053985;28;20021;-67
2023/09/30 06:34:05;;;;;;;11.65;3.05;;;;;;;;;;5072481;28;20043;-67
2023/09/30 06:36:30;;;;;;;9.45;2.10;;;;;;;;;;5058107;28;20390;-68
2023/09/30 06:38:55;;;;;;;7.38;2.33;;;;;;;;;;5052371;28;20056;-67
2023/09/30 06:41:21;;;;;;;14.70;2.70;;;;;;;;;;5057216;28;20120;-67
2023/09/30 06:43:46;;;;;;;11.50;2.30;;;;;;;;;;5072584;28;20043;-67
2023/09/30 06:46:13;;;;;;;14.80;4.78;;;;;;;;;;5071659;28;20024;-68
2023/09/30 06:48:40;;;;;;;13.88;2.88;;;;;;;;;;5073731;28;20498;-67
2023/09/30 06:51:05;;;;;;;15.48;2.63;;;;;;;;;;5073336;28;20394;-67
2023/09/30 06:53:31;;;;;;;11.30;2.45;;;;;;;;;;5072815;28;20032;-68
2023/09/30 06:55:56;;;;;;;13.68;3.83;;;;;;;;;;5073416;28;20025;-68
2023/09/30 06:58:21;;;;;;;10.93;2.80;;;;;;;;;;5073042;28;20043;-69
2023/09/30 07:00:51;;;;;;;11.10;3.15;;;;;;;;;;5073289;28;20055;-68
2023/09/30 07:03:17;;;;;;;8.40;3.40;;;;;;;;;;5073382;28;20020;-68
2023/09/30 07:05:50;;;;;;;9.07;3.08;;;;;;;;;;5071765;28;20478;-69
2023/09/30 07:08:16;;;;;;;12.35;2.75;;;;;;;;;;5072243;28;20029;-69
2023/09/30 07:10:42;;;;;;;10.57;3.55;;;;;;;;;;5072808;28;20021;-69
2023/09/30 07:13:07;;;;;;;12.68;2.63;;;;;;;;;;5073141;28;20020;-68
2023/09/30 07:15:33;;;;;;;16.92;3.45;;;;;;;;;;5072708;28;20024;-69
2023/09/30 07:17:58;;;;;;;11.98;3.92;;;;;;;;;;5073155;28;20020;-69
2023/09/30 07:20:23;;;;;;;18.10;3.58;;;;;;;;;;5071711;28;20046;-69
2023/09/30 07:22:49;;;;;;;10.05;3.47;;;;;;;;;;5071924;28;20474;-69
2023/09/30 07:25:16;;;;;;;16.77;3.20;;;;;;;;;;5070297;28;20044;-68
2023/09/30 07:27:42;;;;;;;11.15;2.60;;;;;;;;;;5051823;28;20028;-68
2023/09/30 07:30:08;;;;;;;8.25;2.67;;;;;;;;;;5066271;28;20150;-68
2023/09/30 07:32:33;;;;;;;13.80;2.80;;;;;;;;;;5073160;28;20121;-68
2023/09/30 07:34:58;;;;;;;9.77;3.35;;;;;;;;;;5072729;28;20543;-69
2023/09/30 07:37:24;;;;;;;13.15;2.72;;;;;;;;;;5072153;28;20025;-69
2023/09/30 07:39:49;;;;;;;11.05;2.58;;;;;;;;;;5068132;28;20028;-68
2023/09/30 07:42:16;;;;;;;17.02;3.67;;;;;;;;;;5055228;28;20483;-68
2023/09/30 07:44:42;;;;;;;11.15;2.65;;;;;;;;;;5070747;28;20036;-68
2023/09/30 07:47:08;;;;;;;10.98;2.78;;;;;;;;;;5092157;28;20020;-68
2023/09/30 07:49:33;;;;;;;13.07;2.92;;;;;;;;;;5083970;28;20021;-68
2023/09/30 07:51:59;;;;;;;15.90;3.33;;;;;;;;;;5090689;28;20474;-68
2023/09/30 07:54:24;;;;;;;16.52;3.35;;;;;;;;;;5072610;28;20056;-68
2023/09/30 07:56:49;;;;;;;17.67;3.97;;;;;;;;;;5072722;28;20054;-68
2023/09/30 07:59:15;;;;;;;11.02;2.83;;;;;;;;;;5071319;28;20120;-69
2023/09/30 08:01:41;;;;;;;8.73;2.50;;;;;;;;;;5074937;22;20148;-70
2023/09/30 08:04:06;;;;;;;13.07;3.17;;;;;;;;;;5052755;28;20029;-69
2023/09/30 08:06:31;;;;;;;6.70;2.53;;;;;;;;;;5035321;28;20021;-70
2023/09/30 08:08:57;;;;;;;14.75;3.47;;;;;;;;;;5052866;28;20467;-68
2023/09/30 08:11:22;;;;;;;11.77;2.25;;;;;;;;;;5052774;28;20064;-68
2023/09/30 08:13:47;;;;;;;8.02;2.55;;;;;;;;;;5052908;28;20137;-69
2023/09/30 08:16:13;;;;;;;14.40;4.90;;;;;;;;;;5052041;28;20044;-68
2023/09/30 08:18:38;;;;;;;19.05;4.57;;;;;;;;;;5056464;28;20064;-68
2023/09/30 08:21:04;;;;;;;15.77;3.60;;;;;;;;;;5057011;28;20590;-69
2023/09/30 08:23:30;;;;;;;14.35;3.13;;;;;;;;;;5061412;28;20032;-69
2023/09/30 08:25:58;;;;;;;14.13;3.42;;;;;;;;;;5056827;28;20505;-69
2023/09/30 08:28:24;;;;;;;9.88;3.00;;;;;;;;;;5034509;28;20025;-68
2023/09/30 08:30:50;;;;;;;9.93;2.92;;;;;;;;;;5052907;28;20052;-69
2023/09/30 08:33:16;;;;;;;11.02;2.75;;;;;;;;;;5052726;28;20029;-68
2023/09/30 08:35:41;;;;;;;15.63;3.33;;;;;;;;;;5052332;28;20025;-69
2023/09/30 08:38:07;;;;;;;13.05;2.75;;;;;;;;;;5034919;28;20056;-69
2023/09/30 08:40:32;;;;;;;15.52;3.85;;;;;;;;;;5056897;28;20025;-71
2023/09/30 08:42:57;;;;;;;13.85;2.90;;;;;;;;;;5047633;28;20029;-72
2023/09/30 08:45:23;;;;;;;15.70;3.40;;;;;;;;;;5055739;28;20097;-71
2023/09/30 08:47:48;;;;;;;12.95;3.58;;;;;;;;;;5052995;28;20028;-71
2023/09/30 08:50:16;;;;;;;14.20;4.75;;;;;;;;;;5076638;28;20043;-71
2023/09/30 08:52:41;;;;;;;13.65;3.10;;;;;;;;;;5067587;28;20057;-70
2023/09/30 08:55:08;;;;;;;14.25;4.00;;;;;;;;;;5055618;28;20053;-70
2023/09/30 08:57:37;;;;;;;12.35;2.42;;;;;;;;;;5056328;28;20382;-69
2023/09/30 09:00:03;;;;;;;7.97;3.40;;;;;;;;;;5056750;28;20086;-69
2023/09/30 09:02:29;;;;;;;14.40;2.90;;;;;;;;;;5019789;28;20543;-69
2023/09/30 09:04:54;;;;;;;11.13;3.22;;;;;;;;;;5036053;28;20059;-70
2023/09/30 09:07:19;;;;;;;9.98;2.72;;;;;;;;;;5049977;28;20107;-69
2023/09/30 09:10:15;;;;;;;14.30;2.88;;;;;;;;;;5056282;28;20020;-70
2023/09/30 09:12:40;;;;;;;10.02;3.00;;;;;;;;;;5038553;28;20067;-69
2023/09/30 09:15:07;;;;;;;17.83;3.67;;;;;;;;;;5055715;28;20614;-68
2023/09/30 09:17:44;;;;;;;7.55;2.75;;;;;;;;;;5024251;28;20148;-68
2023/09/30 09:20:10;;;;;;;9.07;2.63;;;;;;;;;;5034885;28;20083;-69
2023/09/30 09:22:43;;;;;;;16.13;3.20;;;;;;;;;;5026094;28;20025;-68
2023/09/30 09:25:09;;;;;;;9.02;2.53;;;;;;;;;;5039038;28;20107;-68
2023/09/30 09:27:35;;;;;;;15.90;2.70;;;;;;;;;;5070960;28;20540;-68
2023/09/30 09:30:23;;;;;;;13.43;3.33;;;;;;;;;;5071503;28;20032;-68
2023/09/30 09:33:02;;;;;;;13.10;2.50;;;;;;;;;;5056005;28;20425;-68
2023/09/30 09:35:29;;;;;;;6.35;2.00;;;;;;;;;;5038000;28;20025;-68
2023/09/30 09:37:55;;;;;;;6.85;2.92;;;;;;;;;;5055355;28;20174;-68
2023/09/30 09:40:26;;;;;;;13.68;2.53;;;;;;;;;;5055330;28;20051;-68
2023/09/30 09:42:53;;;;;;;15.63;2.83;;;;;;;;;;5045045;28;20452;-68
2023/09/30 09:45:22;;;;;;;8.52;2.10;;;;;;;;;;5035978;28;20091;-68
2023/09/30 09:47:48;;;;;;;11.02;2.88;;;;;;;;;;5035524;28;20017;-69
2023/09/30 09:50:14;;;;;;;10.18;2.53;;;;;;;;;;5036169;28;20036;-68
2023/09/30 09:52:41;;;;;;;7.43;2.35;;;;;;;;;;5055395;28;20390;-68
2023/09/30 09:55:08;;;;;;;9.85;3.13;;;;;;;;;;5037372;28;20021;-68
2023/09/30 09:57:33;;;;;;;16.73;3.15;;;;;;;;;;5054524;28;20032;-69
2023/09/30 09:59:59;;;;;;;13.18;2.90;;;;;;;;;;5037454;28;20029;-69
2023/09/30 10:02:25;;;;;;;5.72;2.83;;;;;;;;;;5037709;28;20029;-69
2023/09/30 10:04:51;;;;;;;11.10;2.70;;;;;;;;;;5037246;28;20029;-69
2023/09/30 10:07:26;;;;;;;13.15;2.55;;;;;;;;;;5055189;28;20029;-69
2023/09/30 10:09:52;;;;;;;15.02;2.60;;;;;;;;;;5033433;28;20021;-69
2023/09/30 10:12:19;;;;;;;12.63;2.42;;;;;;;;;;5035053;28;20029;-69
2023/09/30 10:14:44;;;;;;;9.05;2.30;;;;;;;;;;5020195;28;20502;-69
2023/09/30 10:17:10;;;;;;;9.38;2.92;;;;;;;;;;5035331;28;20100;-69
2023/09/30 10:19:35;;;;;;;14.55;3.58;;;;;;;;;;5033778;28;20459;-68
2023/09/30 10:22:16;;;;;;;9.35;2.38;;;;;;;;;;5060314;28;20032;-69
2023/09/30 10:24:42;;;;;;;16.10;3.28;;;;;;;;;;5054575;28;20032;-69
2023/09/30 10:27:33;;;;;;;11.35;3.13;;;;;;;;;;5036875;28;20422;-69
2023/09/30 10:29:59;;;;;;;9.63;3.92;;;;;;;;;;5054898;28;20103;-69
2023/09/30 10:32:50;;;;;;;11.73;2.35;;;;;;;;;;5054815;28;20458;-69
2023/09/30 10:35:16;;;;;;;12.30;2.53;;;;;;;;;;5034948;28;20144;-69
2023/09/30 10:37:42;;;;;;;12.52;2.65;;;;;;;;;;5040879;28;20522;-69
2023/09/30 10:40:09;;;;;;;7.40;2.75;;;;;;;;;;5017048;28;20156;-69
2023/09/30 10:42:51;;;;;;;7.80;2.25;;;;;;;;;;5017488;28;20071;-69
2023/09/30 10:45:38;;;;;;;8.65;2.13;;;;;;;;;;5054829;28;20390;-69
2023/09/30 10:48:26;;;;;;;7.80;2.33;;;;;;;;;;5036341;28;20028;-70
2023/09/30 10:50:57;;;;;;;10.15;3.03;;;;;;;;;;5053860;28;20021;-69
2023/09/30 10:53:22;;;;;;;10.30;2.30;;;;;;;;;;5054221;28;20074;-69
2023/09/30 10:55:55;;;;;;;13.02;3.75;;;;;;;;;;5036810;28;20033;-69
2023/09/30 10:58:21;;;;;;;10.90;2.85;;;;;;;;;;5053975;28;20020;-69
2023/09/30 11:00:54;;;;;;;11.00;2.75;;;;;;;;;;5053949;28;20117;-69
2023/09/30 11:03:20;;;;;;;12.02;2.92;;;;;;;;;;5034963;28;20524;-69
2023/09/30 11:05:51;;;;;;;7.30;2.20;;;;;;;;;;5067012;28;20033;-69
2023/09/30 11:08:17;;;;;;;;;;;;;;;;;;5055737;28;20486;-70
2023/09/30 11:10:50;;;;;;;11.75;2.83;;;;;;;;;;5047037;28;19919;-70
2023/09/30 11:13:16;;;;;;;12.13;2.60;;;;;;;;;;5053359;28;20049;-69
2023/09/30 11:15:41;;;;;;;10.63;3.38;;;;;;;;;;5052692;28;20525;-69
2023/09/30 11:18:18;;;;;;;8.55;2.90;;;;;;;;;;5035292;28;20064;-69
2023/09/30 11:20:44;;;;;;;12.82;3.25;;;;;;;;;;5018528;28;20033;-69
2023/09/30 11:23:10;;;;;;;7.40;2.60;;;;;;;;;;5052997;28;20025;-69
2023/09/30 11:25:39;;;;;;;12.20;2.53;;;;;;;;;;5035144;28;20387;-70
2023/09/30 11:28:18;;;;;;;7.15;2.22;;;;;;;;;;5035098;28;20099;-70
2023/09/30 11:31:01;;;;;;;9.23;2.95;;;;;;;;;;5052981;28;20025;-70
2023/09/30 11:33:27;;;;;;;12.98;2.60;;;;;;;;;;5035060;28;20032;-70
2023/09/30 11:36:05;;;;;;;11.88;2.20;;;;;;;;;;5052631;28;20363;-70
2023/09/30 11:38:31;;;;;;;9.80;2.78;;;;;;;;;;5052320;28;20020;-70
2023/09/30 11:41:05;;;;;;;14.23;3.33;;;;;;;;;;5052100;28;20029;-69
2023/09/30 11:43:31;;;;;;;11.55;2.33;;;;;;;;;;5052547;28;20037;-69
2023/09/30 11:46:13;;;;;;;4.80;2.28;;;;;;;;;;5034614;28;20023;-69
2023/09/30 11:48:41;;;;;;;10.95;2.78;;;;;;;;;;5035043;28;20040;-69
2023/09/30 11:51:06;;;;;;;8.73;2.38;;;;;;;;;;5033596;28;20029;-70
2023/09/30 11:53:32;;;;;;;6.85;1.88;;;;;;;;;;5052865;28;20017;-70
2023/09/30 11:55:59;;;;;;;9.57;2.58;;;;;;;;;;5034332;28;20032;-69
2023/09/30 11:58:27;;;;;;;6.80;1.95;;;;;;;;;;5052518;28;20475;-70
2023/09/30 12:00:59;;;;;;;7.25;2.10;;;;;;;;;;5016614;28;1027261;-70
2023/09/30 12:03:25;;;;;;;7.18;2.33;;;;;;;;;;5036089;28;20025;-70
2023/09/30 12:05:50;;;;;;;6.82;2.00;;;;;;;;;;5052652;28;20031;-71
2023/09/30 12:08:16;;;;;;;13.15;2.88;;;;;;;;;;5054792;28;20032;-69
2023/09/30 12:10:41;;;;;;;7.18;2.72;;;;;;;;;;5032080;28;20032;-70
2023/09/30 12:13:07;;;;;;;11.95;2.50;;;;;;;;;;5033353;28;20029;-70
2023/09/30 12:15:32;;;;;;;6.25;2.40;;;;;;;;;;5051514;28;20037;-70
2023/09/30 12:17:57;;;;;;;11.65;2.35;;;;;;;;;;5052906;28;20080;-70
2023/09/30 12:20:22;;;;;;;11.38;2.47;;;;;;;;;;5057277;28;20028;-69
2023/09/30 12:22:48;;;;;;;6.07;1.60;;;;;;;;;;5056868;28;20429;-69
2023/09/30 12:25:14;;;;;;;14.13;2.30;;;;;;;;;;5056977;28;20082;-69
2023/09/30 12:27:39;;;;;;;9.57;2.50;;;;;;;;;;5057246;28;20025;-69
2023/09/30 12:30:06;;;;;;;9.30;1.77;;;;;;;;;;5056936;28;20070;-69
2023/09/30 12:32:31;;;;;;;8.52;2.42;;;;;;;;;;5057107;28;20029;-69
2023/09/30 12:34:57;;;;;;;6.72;2.25;;;;;;;;;;5040341;28;20483;-69
2023/09/30 12:37:22;;;;;;;12.18;3.58;;;;;;;;;;5046657;28;20033;-69
2023/09/30 12:39:47;;;;;;;15.20;2.67;;;;;;;;;;5053359;28;20029;-69
2023/09/30 12:42:14;;;;;;;7.72;3.42;;;;;;;;;;5046367;28;20075;-69
2023/09/30 12:44:39;;;;;;;8.15;2.20;;;;;;;;;;5056516;28;20025;-69
2023/09/30 12:47:05;;;;;;;6.38;2.17;;;;;;;;;;5056877;28;20143;-69
2023/09/30 12:49:31;;;;;;;11.68;2.28;;;;;;;;;;5038804;28;20021;-69
2023/09/30 12:51:58;;;;;;;14.90;3.47;;;;;;;;;;5038915;28;20040;-69
2023/09/30 12:54:23;;;;;;;10.70;2.97;;;;;;;;;;5056149;28;20056;-69
2023/09/30 12:56:50;;;;;;;9.13;2.80;;;;;;;;;;5056145;28;20048;-69
2023/09/30 12:59:16;;;;;;;7.47;2.42;;;;;;;;;;5056458;28;20029;-69
2023/09/30 13:01:41;;;;;;;10.15;2.35;;;;;;;;;;5037952;28;20039;-69
2023/09/30 13:04:08;;;;;;;10.88;2.70;;;;;;;;;;5055829;28;20155;-70
2023/09/30 13:06:35;;;;;;;13.25;2.60;;;;;;;;;;5058471;28;20123;-69
2023/09/30 13:09:01;;;;;;;8.88;2.33;;;;;;;;;;5075967;28;20031;-69
2023/09/30 13:11:26;;;;;;;11.50;2.38;;;;;;;;;;5042493;28;20024;-69
2023/09/30 13:13:51;;;;;;;8.90;2.45;;;;;;;;;;5055989;28;20025;-69
2023/09/30 13:16:17;;;;;;;10.27;2.03;;;;;;;;;;5056036;28;20028;-69
2023/09/30 13:18:45;;;;;;;14.32;3.13;;;;;;;;;;5056252;28;20112;-69
2023/09/30 13:21:12;;;;;;;12.50;3.33;;;;;;;;;;5055287;28;20025;-69
2023/09/30 13:23:37;;;;;;;13.18;2.78;;;;;;;;;;5065375;28;20028;-69
2023/09/30 13:26:03;;;;;;;9.45;2.25;;;;;;;;;;5076073;28;20029;-69
2023/09/30 13:28:28;;;;;;;10.30;2.22;;;;;;;;;;5064085;28;20487;-69
2023/09/30 13:30:53;;;;;;;7.75;1.85;;;;;;;;;;5055574;28;20028;-69
2023/09/30 13:33:20;;;;;;;8.82;2.13;;;;;;;;;;5056187;28;20479;-69
2023/09/30 13:35:46;;;;;;;7.78;2.45;;;;;;;;;;5053119;28;20104;-69
2023/09/30 13:38:11;;;;;;;8.48;2.78;;;;;;;;;;5018270;28;20554;-69
2023/09/30 13:40:36;;;;;;;13.10;2.35;;;;;;;;;;5035492;28;20040;-69
2023/09/30 13:43:04;;;;;;;6.60;2.08;;;;;;;;;;5035656;28;20021;-69
2023/09/30 13:45:30;;;;;;;5.50;2.10;;;;;;;;;;5069219;28;20033;-69
2023/09/30 13:47:55;;;;;;;12.80;2.38;;;;;;;;;;5075702;28;20482;-69
2023/09/30 13:50:20;;;;;;;9.77;2.20;;;;;;;;;;5061091;28;20025;-69
2023/09/30 13:52:46;;;;;;;8.10;1.83;;;;;;;;;;5041557;28;20028;-69
2023/09/30 13:55:12;;;;;;;5.10;2.75;;;;;;;;;;5055497;28;20031;-69
2023/09/30 13:57:37;;;;;;;6.93;1.60;;;;;;;;;;5055518;28;20086;-69
2023/09/30 14:00:06;;;;;;;10.18;2.25;;;;;;;;;;5054864;28;20025;-69
2023/09/30 14:02:32;;;;;;;11.57;2.20;;;;;;;;;;5034044;23;20196;-69
2023/09/30 14:04:58;;;;;;;9.00;2.85;;;;;;;;;;5054311;28;20082;-68
2023/09/30 14:07:23;;;;;;;10.30;2.00;;;;;;;;;;5054135;28;20032;-68
2023/09/30 14:09:48;;;;;;;7.30;1.52;;;;;;;;;;5053725;28;20391;-68
2023/09/30 14:12:14;;;;;;;17.25;4.07;;;;;;;;;;5054214;28;20021;-68
2023/09/30 14:14:39;;;;;;;6.07;2.17;;;;;;;;;;5036446;28;20466;-68
2023/09/30 14:17:10;;;;;;;10.73;2.38;;;;;;;;;;5053959;28;20497;-68
2023/09/30 14:19:36;;;;;;;8.82;2.30;;;;;;;;;;5054634;28;20035;-69
2023/09/30 14:22:04;;;;;;;12.43;2.40;;;;;;;;;;5018548;28;20036;-69
2023/09/30 14:24:29;;;;;;;9.30;2.40;;;;;;;;;;5053817;28;20048;-68
2023/09/30 14:26:55;;;;;;;14.23;2.67;;;;;;;;;;5052297;28;20029;-69
2023/09/30 14:29:21;;;;;;;9.48;2.67;;;;;;;;;;5053701;28;20020;-68
2023/09/30 14:31:46;;;;;;;8.18;2.58;;;;;;;;;;5050206;28;20422;-68